Terminal Aerodrome Forecast
Issued by NWS

Home | Current Version | Previous Version | Text Only | Print | Product List | Glossary On
Versions: 1 2 3 4 5 6 7 8 9 10 11 12 13 14
000
FTUS42 TJSJ 241149
TAFJBQ
TAF
TJBQ 241149Z 2412/2512 09010KT P6SM VCSH SCT020 SCT040
     FM241600 05012KT 5SM TSRA SCT025CB BKN040 OVC060
     FM242200 20008KT P6SM -RA VCTS SCT020CB BKN050
     FM250200 00000KT P6SM VCSH FEW025 SCT070=

USA.gov is the U.S. government's official web portal to all federal, state and local government web resources and services.